Acme, Michigan
Current Conditions -  °F | °C
As of 2:53 PM on Thursday 30 Oct 2014 (Local Time) from KTVC Reporting Station
Overcast Overcast  
Wind Chill: 44°   Ceiling: 2500
Heat Index: 47°   Visibility: 10mi
Dew Point: 37°   Wind: 6mph
Humidity: 68%   Direction: 230°SW
Pressure: 30.02"   Gusts: NA
Location:  44.77°N, 85.5°W
Report Text: KTVC 301853Z 23005KT 10SM BKN025 OVC035 08/03 A3002 RMK AO2 SLP169 T00830028
Loading
Personal Weather Stations






























Interactive Weather Map
Tropical Storm Tracking
New forecast layout! Learn more

10-Day Weather Forecast

Advertisements
Track Severe Weather on mobile